createdAt,value
2023-05-17T00:00:04.672Z,26.91
2023-05-17T00:01:04.634Z,29.37
2023-05-17T00:02:04.637Z,29.70
2023-05-17T00:03:04.659Z,30.00
2023-05-17T00:04:04.706Z,29.38
2023-05-17T00:05:04.620Z,31.43
2023-05-17T00:06:04.667Z,29.62
2023-05-17T00:07:04.652Z,30.66
2023-05-17T00:08:04.660Z,30.69
2023-05-17T00:09:04.609Z,30.09
2023-05-17T00:10:04.579Z,28.85
2023-05-17T00:11:04.561Z,30.64
2023-05-17T00:12:04.565Z,31.50
2023-05-17T00:13:04.571Z,29.54
2023-05-17T00:14:04.568Z,30.14
2023-05-17T00:15:04.666Z,30.93
2023-05-17T00:16:04.547Z,32.63
2023-05-17T00:17:04.554Z,32.56
2023-05-17T00:18:05.200Z,31.71
2023-05-17T00:19:04.653Z,28.23
2023-05-17T00:20:04.529Z,31.06
2023-05-17T00:21:04.505Z,32.53
2023-05-17T00:22:04.550Z,33.96
2023-05-17T00:23:04.483Z,32.98
2023-05-17T00:24:04.514Z,35.54
2023-05-17T00:25:04.507Z,35.26
2023-05-17T00:26:04.514Z,36.16
2023-05-17T00:27:04.555Z,32.58
2023-05-17T00:28:04.515Z,34.76
2023-05-17T00:29:04.522Z,32.35
2023-05-17T00:30:04.536Z,35.53
2023-05-17T00:31:04.646Z,36.14
2023-05-17T00:32:04.546Z,34.66
2023-05-17T00:33:04.606Z,36.20
2023-05-17T00:34:04.561Z,37.15
2023-05-17T00:35:04.668Z,35.14
2023-05-17T00:36:04.581Z,36.00
2023-05-17T00:37:04.617Z,34.87
2023-05-17T00:38:04.581Z,35.33
2023-05-17T00:39:04.661Z,34.48
2023-05-17T00:40:04.676Z,34.52
2023-05-17T00:41:04.702Z,34.15
2023-05-17T00:42:04.747Z,35.87
2023-05-17T00:43:04.908Z,36.13
2023-05-17T00:44:04.787Z,32.62
2023-05-17T00:45:04.807Z,30.87
2023-05-17T00:46:04.900Z,34.32
2023-05-17T00:47:04.957Z,34.87
2023-05-17T00:48:04.942Z,32.36
2023-05-17T00:49:04.834Z,37.18
2023-05-17T00:50:04.834Z,34.59
2023-05-17T00:51:04.846Z,31.83
2023-05-17T00:52:04.912Z,35.12
2023-05-17T00:53:04.954Z,35.48
2023-05-17T00:54:04.965Z,35.01
2023-05-17T00:55:05.028Z,34.66
2023-05-17T00:56:05.064Z,33.43
2023-05-17T00:57:05.089Z,34.82
2023-05-17T00:58:05.090Z,35.98
2023-05-17T00:59:05.223Z,36.35
2023-05-17T01:00:05.162Z,35.17
2023-05-17T01:01:05.211Z,35.59
2023-05-17T01:02:05.218Z,33.98
2023-05-17T01:03:05.277Z,36.25
2023-05-17T01:04:05.344Z,37.14
2023-05-17T01:05:05.462Z,38.33
2023-05-17T01:06:05.400Z,36.51
2023-05-17T01:07:05.402Z,37.23
2023-05-17T01:08:05.406Z,36.56
2023-05-17T01:09:05.412Z,36.45
2023-05-17T01:10:05.490Z,37.75
2023-05-17T01:11:05.516Z,38.49
2023-05-17T01:12:05.497Z,38.11
2023-05-17T01:13:05.559Z,37.49
2023-05-17T01:14:05.546Z,35.51
2023-05-17T01:15:05.608Z,35.83
2023-05-17T01:16:05.560Z,37.40
2023-05-17T01:17:05.574Z,37.60
2023-05-17T01:18:05.677Z,39.00
2023-05-17T01:19:05.782Z,37.84
2023-05-17T01:20:05.704Z,38.64
2023-05-17T01:21:05.602Z,40.60
2023-05-17T01:22:05.608Z,37.95
2023-05-17T01:23:05.673Z,37.92
2023-05-17T01:24:05.678Z,38.04
2023-05-17T01:25:05.674Z,39.55
2023-05-17T01:26:05.723Z,37.85
2023-05-17T01:27:05.712Z,38.62
2023-05-17T01:28:05.700Z,38.99
2023-05-17T01:29:05.723Z,40.41
2023-05-17T01:30:06.654Z,38.03
2023-05-17T01:31:05.771Z,37.35
2023-05-17T01:32:05.746Z,38.80
2023-05-17T01:33:05.913Z,38.15
2023-05-17T01:34:05.791Z,37.97
2023-05-17T01:35:05.856Z,38.84
2023-05-17T01:36:06.059Z,36.68
2023-05-17T01:37:05.807Z,39.43
2023-05-17T01:38:05.777Z,40.99
2023-05-17T01:39:05.824Z,40.30
2023-05-17T01:40:05.835Z,41.20
2023-05-17T01:41:05.842Z,41.19
2023-05-17T01:42:05.845Z,40.76
2023-05-17T01:43:05.848Z,39.77
2023-05-17T01:44:05.895Z,42.57
2023-05-17T01:45:05.878Z,40.45
2023-05-17T01:46:05.853Z,40.29
2023-05-17T01:47:05.826Z,39.43
2023-05-17T01:48:05.960Z,42.86
2023-05-17T01:49:05.952Z,42.21
2023-05-17T01:50:05.951Z,41.47
2023-05-17T01:51:06.026Z,40.69
2023-05-17T01:52:06.011Z,39.44
2023-05-17T01:53:05.980Z,41.81
2023-05-17T01:54:05.993Z,42.16
2023-05-17T01:55:06.005Z,39.86
2023-05-17T01:56:06.091Z,40.86
2023-05-17T01:57:06.106Z,40.82
2023-05-17T01:58:06.165Z,40.00
2023-05-17T01:59:06.162Z,40.29
2023-05-17T02:00:06.232Z,42.79
2023-05-17T02:01:06.294Z,39.92
2023-05-17T02:02:06.306Z,37.72
2023-05-17T02:03:06.302Z,41.02
2023-05-17T02:04:06.291Z,41.28
2023-05-17T02:05:06.299Z,44.51
2023-05-17T02:06:06.326Z,43.44
2023-05-17T02:07:06.444Z,41.37
2023-05-17T02:08:06.381Z,43.76
2023-05-17T02:09:06.407Z,41.39
2023-05-17T02:10:06.392Z,41.99
2023-05-17T02:11:06.516Z,40.87
2023-05-17T02:12:06.568Z,42.54
2023-05-17T02:13:06.572Z,42.67
2023-05-17T02:14:06.540Z,41.28
2023-05-17T02:15:06.600Z,40.93
2023-05-17T02:16:06.616Z,45.34
2023-05-17T02:17:06.601Z,42.17
2023-05-17T02:18:06.722Z,44.11
2023-05-17T02:19:06.686Z,42.24
2023-05-17T02:20:06.642Z,42.61
2023-05-17T02:21:06.676Z,43.63
2023-05-17T02:22:06.698Z,42.40
2023-05-17T02:23:06.773Z,45.19
2023-05-17T02:24:06.697Z,40.93
2023-05-17T02:25:06.713Z,45.77
2023-05-17T02:26:07.679Z,45.37
2023-05-17T02:27:06.792Z,44.51
2023-05-17T02:28:06.771Z,46.05
2023-05-17T02:29:06.780Z,45.32
2023-05-17T02:30:06.825Z,46.22
2023-05-17T02:31:06.816Z,45.08
2023-05-17T02:32:06.794Z,46.42
2023-05-17T02:33:06.948Z,46.73
2023-05-17T02:34:06.848Z,46.62
2023-05-17T02:35:06.879Z,44.62
2023-05-17T02:36:06.864Z,44.47
2023-05-17T02:37:06.896Z,43.20
2023-05-17T02:38:06.926Z,45.05
2023-05-17T02:39:07.106Z,44.68
2023-05-17T02:40:06.912Z,41.87
2023-05-17T02:41:06.927Z,46.37
2023-05-17T02:42:06.954Z,47.34
2023-05-17T02:43:06.937Z,46.24
2023-05-17T02:44:07.033Z,45.25
2023-05-17T02:45:06.995Z,48.00
2023-05-17T02:46:07.025Z,48.86
2023-05-17T02:47:07.042Z,44.59
2023-05-17T02:48:07.093Z,49.31
2023-05-17T02:49:07.134Z,44.67
2023-05-17T02:50:07.225Z,44.01
2023-05-17T02:51:07.193Z,47.74
2023-05-17T02:52:07.245Z,47.09
2023-05-17T02:53:07.312Z,44.30
2023-05-17T02:54:07.321Z,45.27
2023-05-17T02:55:07.450Z,43.96
2023-05-17T02:56:07.506Z,45.90
2023-05-17T02:57:07.455Z,46.88
2023-05-17T02:58:07.507Z,47.59
2023-05-17T02:59:07.556Z,45.25
2023-05-17T03:00:07.689Z,46.45
2023-05-17T03:01:07.568Z,46.31
2023-05-17T03:02:07.612Z,47.37
2023-05-17T03:03:07.689Z,43.48
2023-05-17T03:04:07.821Z,46.06
2023-05-17T03:05:07.635Z,43.95
2023-05-17T03:06:07.649Z,45.23
2023-05-17T03:07:07.718Z,44.02
2023-05-17T03:08:07.716Z,47.75
2023-05-17T03:09:07.812Z,46.66
2023-05-17T03:10:07.845Z,46.29
2023-05-17T03:11:07.836Z,46.15
2023-05-17T03:12:07.834Z,45.68
2023-05-17T03:13:07.865Z,46.11
2023-05-17T03:14:07.955Z,45.04
2023-05-17T03:15:07.923Z,46.96
2023-05-17T03:16:08.029Z,44.46
2023-05-17T03:17:07.928Z,46.61
2023-05-17T03:18:08.107Z,45.40
2023-05-17T03:19:08.030Z,44.90
2023-05-17T03:20:07.990Z,42.56
2023-05-17T03:21:07.978Z,46.08
2023-05-17T03:22:08.034Z,44.18
2023-05-17T03:23:08.040Z,46.17
2023-05-17T03:24:08.136Z,46.28
2023-05-17T03:25:08.128Z,49.11
2023-05-17T03:26:08.161Z,47.13
2023-05-17T03:27:08.321Z,46.78
2023-05-17T03:28:08.283Z,47.99
2023-05-17T03:29:08.319Z,47.20
2023-05-17T03:30:08.381Z,47.75
2023-05-17T03:31:08.440Z,46.58
2023-05-17T03:32:08.454Z,46.39
2023-05-17T03:33:08.550Z,45.49
2023-05-17T03:34:08.572Z,46.25
2023-05-17T03:35:08.575Z,45.67
2023-05-17T03:36:08.623Z,48.49
2023-05-17T03:37:08.614Z,46.88
2023-05-17T03:38:08.633Z,47.02
2023-05-17T03:39:08.702Z,48.42
2023-05-17T03:40:08.772Z,45.47
2023-05-17T03:41:08.704Z,47.25
2023-05-17T03:42:08.765Z,47.40
2023-05-17T03:43:08.886Z,44.41
2023-05-17T03:44:08.801Z,49.36
2023-05-17T03:45:08.878Z,49.16
2023-05-17T03:46:08.867Z,47.70
2023-05-17T03:47:08.893Z,48.36
2023-05-17T03:48:08.852Z,46.03
2023-05-17T03:49:08.895Z,47.55
2023-05-17T03:50:08.919Z,48.32
2023-05-17T03:51:08.921Z,49.20
2023-05-17T03:52:08.934Z,50.67
2023-05-17T03:53:08.970Z,50.62
2023-05-17T03:54:09.059Z,49.44
2023-05-17T03:55:09.014Z,47.53
2023-05-17T03:56:09.018Z,52.32
2023-05-17T03:57:09.036Z,49.71
2023-05-17T03:58:09.075Z,49.24
2023-05-17T03:59:09.307Z,48.69
2023-05-17T04:00:09.206Z,48.56
2023-05-17T04:01:09.193Z,50.61
2023-05-17T04:02:09.238Z,51.52
2023-05-17T04:03:09.295Z,50.68
2023-05-17T04:04:09.332Z,50.40
2023-05-17T04:05:09.374Z,48.21
2023-05-17T04:06:09.350Z,46.60
2023-05-17T04:07:09.402Z,41.83
2023-05-17T04:08:09.416Z,36.08
2023-05-17T04:09:09.451Z,33.05
2023-05-17T04:10:09.413Z,29.61
2023-05-17T04:11:09.808Z,25.38
2023-05-17T04:12:09.486Z,25.47
2023-05-17T04:13:09.481Z,25.96
2023-05-17T04:14:09.531Z,25.00
2023-05-17T04:15:09.610Z,25.00
2023-05-17T04:16:09.689Z,24.87
2023-05-17T04:17:09.597Z,24.19
2023-05-17T04:18:09.717Z,26.52
2023-05-17T04:19:09.733Z,25.00
2023-05-17T04:20:09.632Z,25.18
2023-05-17T04:21:09.766Z,25.51
2023-05-17T04:22:09.783Z,26.12
2023-05-17T04:23:09.757Z,25.75
2023-05-17T04:24:09.760Z,25.00
2023-05-17T04:25:09.782Z,25.47
2023-05-17T04:26:09.851Z,27.75
2023-05-17T04:27:09.852Z,28.97
2023-05-17T04:28:09.857Z,27.66
2023-05-17T04:29:09.829Z,27.02
2023-05-17T04:30:09.864Z,25.00
2023-05-17T04:31:09.969Z,30.17
2023-05-17T04:32:10.738Z,25.83
2023-05-17T04:33:11.437Z,27.03
2023-05-17T04:34:10.015Z,33.28
2023-05-17T04:35:09.935Z,31.40
2023-05-17T04:36:09.960Z,30.84
2023-05-17T04:37:09.966Z,33.38
2023-05-17T04:38:09.988Z,37.00
2023-05-17T04:39:09.981Z,30.44
2023-05-17T04:40:09.938Z,29.06
2023-05-17T04:41:09.938Z,30.73
2023-05-17T04:42:09.930Z,32.30
2023-05-17T04:43:09.936Z,31.83
2023-05-17T04:44:09.906Z,31.60
2023-05-17T04:45:09.865Z,35.24
2023-05-17T04:46:09.923Z,34.41
2023-05-17T04:47:10.008Z,32.01
2023-05-17T04:48:09.924Z,31.50
2023-05-17T04:49:09.886Z,34.37
2023-05-17T04:50:09.854Z,35.45
2023-05-17T04:51:09.867Z,34.75
2023-05-17T04:52:09.870Z,36.69
2023-05-17T04:53:09.842Z,36.77
2023-05-17T04:54:10.766Z,39.94
2023-05-17T04:55:09.831Z,38.36
2023-05-17T04:56:09.866Z,37.38
2023-05-17T04:57:10.735Z,38.37
2023-05-17T04:58:09.791Z,31.47
2023-05-17T04:59:09.821Z,28.38
2023-05-17T05:00:09.821Z,25.00
2023-05-17T05:01:10.733Z,25.00
2023-05-17T05:02:09.784Z,26.28
2023-05-17T05:03:10.051Z,30.16
2023-05-17T05:04:09.921Z,25.83
2023-05-17T05:05:09.845Z,25.00
2023-05-17T05:06:09.759Z,25.51
2023-05-17T05:07:09.745Z,25.00
2023-05-17T05:08:09.765Z,25.07
2023-05-17T05:09:09.835Z,26.97
2023-05-17T05:10:09.709Z,25.62
2023-05-17T05:11:09.738Z,28.73
2023-05-17T05:12:09.716Z,26.77
2023-05-17T05:13:09.710Z,29.07
2023-05-17T05:14:09.729Z,25.00
2023-05-17T05:15:09.687Z,26.04
2023-05-17T05:16:09.690Z,27.87
2023-05-17T05:17:09.707Z,28.12
2023-05-17T05:18:09.714Z,29.36
2023-05-17T05:19:09.998Z,27.81
2023-05-17T05:20:09.632Z,28.59
2023-05-17T05:21:09.676Z,30.25
2023-05-17T05:22:09.744Z,25.00
2023-05-17T05:23:09.767Z,28.31
2023-05-17T05:24:09.790Z,25.97
2023-05-17T05:25:09.923Z,25.76
2023-05-17T05:26:09.840Z,27.22
2023-05-17T05:27:09.987Z,27.93
2023-05-17T05:28:10.012Z,28.66
2023-05-17T05:29:09.998Z,25.42
2023-05-17T05:30:10.048Z,25.18
2023-05-17T05:31:10.118Z,26.89
2023-05-17T05:32:10.133Z,29.09
2023-05-17T05:33:10.216Z,33.71
2023-05-17T05:34:10.872Z,40.83
2023-05-17T05:35:10.242Z,40.86
2023-05-17T05:36:10.362Z,38.02
2023-05-17T05:37:10.363Z,36.67
2023-05-17T05:38:10.563Z,37.29
2023-05-17T05:39:10.413Z,39.56
2023-05-17T05:40:10.499Z,38.12
2023-05-17T05:41:10.515Z,38.15
2023-05-17T05:42:10.547Z,36.48
2023-05-17T05:43:10.610Z,36.20
2023-05-17T05:44:10.628Z,39.16
2023-05-17T05:45:10.743Z,41.58
2023-05-17T05:46:10.692Z,60.69
2023-05-17T05:47:10.835Z,65.29
2023-05-17T05:48:10.829Z,67.12
2023-05-17T05:49:10.927Z,63.10
2023-05-17T05:50:10.982Z,59.27
2023-05-17T05:51:10.961Z,62.64
2023-05-17T05:52:11.904Z,61.55
2023-05-17T05:53:18.685Z,66.85
2023-05-17T05:54:12.022Z,67.22
2023-05-17T05:55:11.017Z,68.35
2023-05-17T05:56:10.932Z,71.98
2023-05-17T05:57:11.039Z,77.88
2023-05-17T05:58:10.937Z,87.66
2023-05-17T05:59:10.926Z,90.30
2023-05-17T06:00:11.035Z,99.37
2023-05-17T06:01:10.937Z,108.91
2023-05-17T06:02:10.961Z,113.49
2023-05-17T06:03:10.910Z,118.97
2023-05-17T06:04:10.889Z,119.78
2023-05-17T06:05:10.890Z,116.74
2023-05-17T06:06:10.996Z,112.70
2023-05-17T06:07:11.760Z,114.38
2023-05-17T06:08:10.878Z,117.27
2023-05-17T06:09:11.413Z,117.20
2023-05-17T06:10:10.901Z,114.58
2023-05-17T06:11:11.014Z,115.25
2023-05-17T06:12:10.898Z,119.52
2023-05-17T06:13:10.826Z,121.87
2023-05-17T06:14:10.821Z,122.71
2023-05-17T06:15:11.762Z,126.81
2023-05-17T06:16:11.761Z,124.13
2023-05-17T06:17:10.848Z,122.40
2023-05-17T06:18:11.014Z,123.10
2023-05-17T06:19:10.946Z,128.79
2023-05-17T06:20:10.885Z,126.89
2023-05-17T06:21:10.929Z,129.79
2023-05-17T06:22:10.942Z,128.40
2023-05-17T06:23:11.113Z,130.12
2023-05-17T06:24:10.919Z,128.12
2023-05-17T06:25:11.466Z,125.55
2023-05-17T06:26:11.044Z,128.74
2023-05-17T06:27:11.009Z,128.36
2023-05-17T06:28:10.962Z,125.97
2023-05-17T06:29:11.028Z,128.85
2023-05-17T06:30:11.018Z,129.52
2023-05-17T06:31:11.042Z,131.33
2023-05-17T06:32:11.077Z,128.06
2023-05-17T06:33:11.151Z,130.83
2023-05-17T06:34:11.906Z,132.53
2023-05-17T06:35:11.433Z,133.62
2023-05-17T06:36:11.106Z,126.87
2023-05-17T06:37:11.179Z,115.66
2023-05-17T06:38:11.187Z,112.52
2023-05-17T06:39:11.289Z,101.45
2023-05-17T06:41:11.417Z,64.05
2023-05-17T06:42:11.100Z,69.28
2023-05-17T06:43:11.127Z,74.52
2023-05-17T06:44:11.262Z,81.08
2023-05-17T06:45:11.119Z,74.81
2023-05-17T06:46:11.275Z,68.29
2023-05-17T06:47:11.079Z,69.91
2023-05-17T06:48:11.138Z,72.71
2023-05-17T06:49:11.422Z,73.79
2023-05-17T06:50:11.807Z,78.14
2023-05-17T06:51:11.078Z,86.51
2023-05-17T06:52:11.099Z,86.13
2023-05-17T06:53:11.793Z,84.40
2023-05-17T06:54:11.519Z,84.77
2023-05-17T06:55:11.198Z,82.49
2023-05-17T06:56:10.996Z,77.40
2023-05-17T06:57:11.076Z,77.86
2023-05-17T06:58:11.047Z,79.27
2023-05-17T06:59:11.833Z,77.81
2023-05-17T07:00:11.193Z,72.96
2023-05-17T07:01:11.369Z,74.77
2023-05-17T07:02:11.779Z,80.03
2023-05-17T07:03:11.856Z,89.22
2023-05-17T07:04:11.925Z,92.52
2023-05-17T07:05:11.245Z,87.16
2023-05-17T07:06:10.958Z,89.97
2023-05-17T07:07:10.971Z,93.46
2023-05-17T07:08:10.995Z,91.22
2023-05-17T07:09:10.900Z,86.02
2023-05-17T07:10:10.924Z,86.33
2023-05-17T07:11:11.089Z,89.28
2023-05-17T07:12:10.898Z,87.85
2023-05-17T07:13:10.898Z,88.69
2023-05-17T07:14:10.939Z,91.61
2023-05-17T07:15:10.907Z,71.29
2023-05-17T07:16:10.979Z,62.85
2023-05-17T07:17:10.880Z,61.85
2023-05-17T07:18:10.932Z,72.18
2023-05-17T07:19:10.989Z,73.94
2023-05-17T07:20:10.965Z,74.54
2023-05-17T07:21:11.836Z,74.54
2023-05-17T07:22:10.884Z,69.85
2023-05-17T07:23:10.811Z,69.08
2023-05-17T07:24:10.811Z,71.90
2023-05-17T07:25:10.959Z,72.55
2023-05-17T07:26:12.342Z,75.04
2023-05-17T07:27:10.882Z,73.37
2023-05-17T07:28:10.835Z,72.07
2023-05-17T07:29:10.824Z,74.26
2023-05-17T07:30:10.769Z,71.70
2023-05-17T07:31:10.897Z,71.15
2023-05-17T07:32:10.853Z,64.29
2023-05-17T07:33:10.881Z,55.20
2023-05-17T07:34:10.952Z,54.63
2023-05-17T07:35:10.969Z,53.07
2023-05-17T07:36:12.636Z,55.60
2023-05-17T07:37:10.870Z,49.53
2023-05-17T07:38:11.060Z,44.59
2023-05-17T07:39:11.810Z,38.13
2023-05-17T07:40:10.856Z,35.04
2023-05-17T07:41:10.836Z,26.01
2023-05-17T07:42:10.839Z,27.51
2023-05-17T07:43:10.943Z,25.48
2023-05-17T07:44:10.848Z,25.00
2023-05-17T07:45:10.832Z,25.16
2023-05-17T07:46:10.879Z,29.69
2023-05-17T07:47:10.908Z,29.62
2023-05-17T07:48:11.426Z,25.00
2023-05-17T07:49:11.007Z,25.00
2023-05-17T07:50:10.876Z,25.92
2023-05-17T07:51:10.871Z,26.97
2023-05-17T07:52:10.836Z,27.18
2023-05-17T07:53:10.826Z,33.38
2023-05-17T07:54:10.791Z,36.25
2023-05-17T07:55:10.764Z,41.91
2023-05-17T07:56:10.801Z,43.40
2023-05-17T07:57:10.903Z,49.30
2023-05-17T07:58:10.792Z,51.72
2023-05-17T07:59:11.319Z,48.28
2023-05-17T08:00:11.362Z,46.84
2023-05-17T08:01:10.729Z,51.25
2023-05-17T08:02:11.393Z,54.88
2023-05-17T08:03:11.710Z,53.98
2023-05-17T08:04:11.423Z,58.94
2023-05-17T08:05:10.964Z,58.21
2023-05-17T08:06:10.811Z,50.77
2023-05-17T08:07:10.699Z,46.73
2023-05-17T08:08:10.645Z,47.98
2023-05-17T08:09:10.715Z,39.28
2023-05-17T08:10:10.695Z,33.69
2023-05-17T08:11:10.629Z,36.90
2023-05-17T08:12:11.851Z,34.22
2023-05-17T08:13:10.700Z,30.33
2023-05-17T08:14:10.644Z,37.05
2023-05-17T08:15:10.667Z,39.53
2023-05-17T08:16:14.034Z,40.07
2023-05-17T08:17:10.638Z,39.08
2023-05-17T08:18:10.685Z,32.16
2023-05-17T08:19:10.771Z,24.16
2023-05-17T08:20:10.967Z,36.91
2023-05-17T08:21:10.600Z,32.49
2023-05-17T08:22:10.564Z,36.40
2023-05-17T08:23:10.569Z,40.12
2023-05-17T08:24:10.984Z,42.10
2023-05-17T08:25:10.596Z,47.72
2023-05-17T08:26:10.533Z,49.80
2023-05-17T08:27:10.546Z,46.93
2023-05-17T08:28:10.536Z,25.00
2023-05-17T08:29:10.559Z,12.17
2023-05-17T08:30:14.731Z,1.51
2023-05-17T08:31:10.519Z,0.00
2023-05-17T08:32:10.521Z,0.00
2023-05-17T08:33:10.536Z,0.00
2023-05-17T08:34:10.647Z,0.00
2023-05-17T08:35:10.555Z,0.00
2023-05-17T08:36:10.502Z,0.00
2023-05-17T08:37:10.510Z,0.00
2023-05-17T08:38:10.490Z,0.00
2023-05-17T08:39:10.505Z,4.49
2023-05-17T08:40:11.922Z,26.02
2023-05-17T08:41:10.435Z,29.02
2023-05-17T08:42:10.545Z,37.02
2023-05-17T08:43:10.512Z,66.68
2023-05-17T08:44:10.402Z,98.83
2023-05-17T08:45:10.480Z,102.66
2023-05-17T08:46:10.415Z,111.35
2023-05-17T08:47:10.459Z,123.65
2023-05-17T08:48:10.436Z,135.35
2023-05-17T08:49:10.446Z,149.11
2023-05-17T08:50:10.335Z,160.15
2023-05-17T08:51:10.459Z,173.66
2023-05-17T08:52:10.479Z,176.74
2023-05-17T08:53:10.597Z,182.27
2023-05-17T08:54:10.984Z,184.24
2023-05-17T08:55:10.625Z,192.56
2023-05-17T08:56:10.710Z,188.29
2023-05-17T08:57:10.817Z,194.96
2023-05-17T08:58:10.797Z,199.02
2023-05-17T08:59:10.815Z,206.83
2023-05-17T09:00:10.848Z,205.46
2023-05-17T09:01:10.865Z,213.71
2023-05-17T09:02:10.908Z,216.53
2023-05-17T09:03:10.953Z,220.69
2023-05-17T09:04:10.933Z,227.67
2023-05-17T09:05:11.162Z,233.51
2023-05-17T09:06:10.921Z,241.06
2023-05-17T09:07:10.890Z,249.19
2023-05-17T09:08:10.833Z,249.03
2023-05-17T09:09:10.907Z,250.00
2023-05-17T09:10:10.897Z,246.26
2023-05-17T09:11:10.899Z,249.95
2023-05-17T09:12:10.883Z,248.96
2023-05-17T09:13:10.901Z,245.60
2023-05-17T09:14:10.929Z,250.00
2023-05-17T09:15:10.951Z,249.93
2023-05-17T09:16:10.942Z,250.00
2023-05-17T09:17:12.217Z,249.67
2023-05-17T09:18:11.219Z,246.86
2023-05-17T09:19:11.176Z,243.65
2023-05-17T09:20:11.272Z,250.00
2023-05-17T09:21:11.212Z,250.00
2023-05-17T09:22:11.279Z,249.88
2023-05-17T09:23:11.504Z,250.00
2023-05-17T09:24:11.384Z,249.43
2023-05-17T09:25:11.452Z,250.00
2023-05-17T09:26:12.127Z,247.85
2023-05-17T09:27:11.442Z,248.71
2023-05-17T09:28:11.444Z,242.34
2023-05-17T09:29:11.477Z,243.07
2023-05-17T09:30:11.481Z,244.82
2023-05-17T09:31:11.968Z,250.00
2023-05-17T09:32:12.460Z,249.35
2023-05-17T09:33:12.414Z,250.00
2023-05-17T09:34:11.732Z,250.00
2023-05-17T09:35:11.752Z,247.94
2023-05-17T09:36:11.831Z,245.40
2023-05-17T09:37:12.118Z,250.00
2023-05-17T09:38:11.938Z,249.50
2023-05-17T09:39:11.970Z,249.80
2023-05-17T09:40:11.955Z,250.00
2023-05-17T09:41:11.976Z,249.92
2023-05-17T09:42:12.035Z,250.00
2023-05-17T09:43:12.078Z,241.06
2023-05-17T09:44:12.870Z,236.80
2023-05-17T09:45:12.144Z,234.55
2023-05-17T09:46:12.472Z,239.24
2023-05-17T09:47:12.274Z,238.25
2023-05-17T09:48:12.433Z,240.08
2023-05-17T09:49:12.387Z,241.50
2023-05-17T09:50:12.468Z,243.36
2023-05-17T09:51:12.525Z,244.85
2023-05-17T09:52:12.552Z,248.67
2023-05-17T09:53:12.632Z,250.00
2023-05-17T09:54:12.651Z,249.11
2023-05-17T09:55:12.762Z,248.58
2023-05-17T09:56:12.666Z,247.02
2023-05-17T09:57:12.788Z,244.68
2023-05-17T09:58:13.521Z,246.37
2023-05-17T09:59:12.801Z,244.06
2023-05-17T10:00:13.476Z,248.07
2023-05-17T10:01:13.861Z,249.29
2023-05-17T10:02:13.025Z,248.67
2023-05-17T10:03:13.038Z,249.45
2023-05-17T10:04:13.172Z,247.72
2023-05-17T10:05:13.460Z,245.89
2023-05-17T10:06:23.624Z,249.73
2023-05-17T10:07:14.147Z,250.32
2023-05-17T10:08:13.131Z,251.93
2023-05-17T10:09:13.140Z,254.04
2023-05-17T10:10:13.132Z,255.88
2023-05-17T10:11:13.266Z,257.46
2023-05-17T10:12:13.995Z,250.10
2023-05-17T10:13:13.388Z,248.41
2023-05-17T10:14:13.319Z,247.36
2023-05-17T10:15:13.532Z,248.95
2023-05-17T10:16:13.608Z,249.16
2023-05-17T10:17:13.618Z,250.00
2023-05-17T10:18:13.675Z,250.00
2023-05-17T10:19:13.747Z,246.55
2023-05-17T10:20:13.855Z,249.98
2023-05-17T10:21:14.050Z,248.74
2023-05-17T10:22:22.444Z,249.23
2023-05-17T10:23:14.864Z,249.24
2023-05-17T10:24:13.876Z,246.69
2023-05-17T10:25:14.369Z,245.19
2023-05-17T10:26:13.978Z,240.06
2023-05-17T10:27:13.789Z,226.00
2023-05-17T10:28:13.789Z,200.82
2023-05-17T10:29:13.810Z,178.29
2023-05-17T10:30:13.799Z,174.77
2023-05-17T10:31:13.823Z,178.90
2023-05-17T10:32:13.724Z,185.67
2023-05-17T10:33:13.860Z,181.22
2023-05-17T10:34:13.854Z,177.51
2023-05-17T10:35:14.889Z,169.92
2023-05-17T10:36:13.828Z,167.53
2023-05-17T10:37:13.852Z,165.82
2023-05-17T10:38:13.990Z,156.26
2023-05-17T10:39:13.991Z,151.18
2023-05-17T10:40:14.327Z,140.74
2023-05-17T10:41:14.020Z,136.77
2023-05-17T10:42:15.351Z,121.50
2023-05-17T10:43:14.505Z,118.00
2023-05-17T10:44:14.197Z,112.84
2023-05-17T10:45:14.302Z,107.67
2023-05-17T10:46:14.256Z,108.92
2023-05-17T10:47:14.377Z,106.42
2023-05-17T10:48:14.553Z,112.49
2023-05-17T10:49:14.667Z,118.58
2023-05-17T10:50:14.463Z,122.48
2023-05-17T10:51:14.542Z,126.77
2023-05-17T10:52:14.547Z,130.32
2023-05-17T10:53:14.549Z,132.16
2023-05-17T10:54:14.576Z,127.53
2023-05-17T10:55:14.705Z,122.38
2023-05-17T10:56:14.633Z,130.77
2023-05-17T10:57:14.625Z,132.18
2023-05-17T10:58:14.618Z,126.89
2023-05-17T10:59:14.623Z,133.50
2023-05-17T11:00:14.658Z,140.58
2023-05-17T11:01:14.653Z,141.77
2023-05-17T11:02:14.620Z,146.71
2023-05-17T11:03:14.666Z,150.20
2023-05-17T11:04:14.698Z,151.05
2023-05-17T11:05:14.778Z,155.08
2023-05-17T11:06:23.567Z,156.94
2023-05-17T11:07:15.728Z,157.12
2023-05-17T11:08:14.676Z,149.84
2023-05-17T11:09:14.665Z,142.41
2023-05-17T11:10:14.730Z,141.46
2023-05-17T11:11:14.728Z,139.17
2023-05-17T11:12:14.672Z,142.30
2023-05-17T11:13:14.630Z,150.40
2023-05-17T11:14:14.665Z,152.50
2023-05-17T11:15:14.679Z,148.24
2023-05-17T11:16:15.693Z,148.19
2023-05-17T11:17:14.634Z,144.28
2023-05-17T11:18:26.619Z,136.65
2023-05-17T11:19:15.852Z,137.18
2023-05-17T11:20:16.559Z,138.42
2023-05-17T11:21:14.801Z,140.94
2023-05-17T11:22:14.857Z,143.15
2023-05-17T11:23:14.906Z,148.23
2023-05-17T11:24:15.496Z,142.92
2023-05-17T11:25:14.882Z,137.80
2023-05-17T11:26:16.142Z,135.03
2023-05-17T11:27:14.897Z,138.86
2023-05-17T11:28:14.915Z,142.96
2023-05-17T11:29:14.956Z,133.89
2023-05-17T11:30:14.983Z,122.65
2023-05-17T11:31:15.020Z,117.07
2023-05-17T11:32:15.081Z,121.40
2023-05-17T11:33:25.358Z,120.31
2023-05-17T11:34:16.138Z,120.08
2023-05-17T11:35:15.088Z,112.44
2023-05-17T11:36:15.264Z,120.06
2023-05-17T11:37:15.089Z,118.69
2023-05-17T11:38:15.082Z,119.36
2023-05-17T11:39:15.133Z,115.66
2023-05-17T11:40:15.085Z,109.52
2023-05-17T11:41:25.574Z,106.34
2023-05-17T11:42:16.019Z,106.50
2023-05-17T11:43:15.117Z,107.61
2023-05-17T11:44:15.028Z,103.80
2023-05-17T11:45:15.014Z,96.11
2023-05-17T11:46:15.034Z,95.33
2023-05-17T11:47:15.049Z,92.14
2023-05-17T11:48:15.144Z,92.48
2023-05-17T11:49:26.859Z,96.06
2023-05-17T11:50:15.962Z,92.46
2023-05-17T11:51:14.973Z,88.14
2023-05-17T11:52:14.966Z,85.29
2023-05-17T11:53:14.970Z,93.66
2023-05-17T11:54:14.993Z,96.91
2023-05-17T11:55:14.982Z,95.47
2023-05-17T11:56:14.955Z,102.41
2023-05-17T11:57:14.949Z,110.96
2023-05-17T11:58:14.960Z,120.50
2023-05-17T11:59:15.001Z,128.73
2023-05-17T12:00:14.948Z,138.85
2023-05-17T12:01:14.925Z,141.39
2023-05-17T12:02:15.046Z,141.98
2023-05-17T12:03:14.951Z,137.26
2023-05-17T12:04:14.908Z,128.00
2023-05-17T12:05:14.953Z,129.72
2023-05-17T12:06:14.937Z,125.79
2023-05-17T12:07:14.853Z,126.26
2023-05-17T12:08:14.978Z,130.72
2023-05-17T12:09:14.865Z,136.42
2023-05-17T12:10:14.889Z,136.95
2023-05-17T12:11:14.881Z,134.88
2023-05-17T12:12:14.932Z,137.31
2023-05-17T12:13:14.939Z,139.45
2023-05-17T12:14:15.011Z,141.52
2023-05-17T12:15:14.980Z,142.20
2023-05-17T12:16:17.879Z,141.01
2023-05-17T12:17:15.024Z,142.60
2023-05-17T12:18:15.078Z,147.06
2023-05-17T12:19:15.017Z,149.08
2023-05-17T12:20:15.141Z,151.52
2023-05-17T12:21:14.991Z,153.62
2023-05-17T12:22:14.987Z,155.20
2023-05-17T12:23:14.957Z,154.52
2023-05-17T12:24:15.001Z,155.30
2023-05-17T12:25:14.981Z,155.43
2023-05-17T12:26:15.010Z,155.86
2023-05-17T12:27:14.918Z,155.07
2023-05-17T12:28:14.935Z,152.93
2023-05-17T12:29:14.910Z,154.82
2023-05-17T12:30:14.910Z,155.01
2023-05-17T12:31:14.915Z,153.80
2023-05-17T12:32:14.852Z,155.44
2023-05-17T12:33:14.978Z,157.70
2023-05-17T12:34:14.940Z,157.90
2023-05-17T12:35:14.836Z,159.62
2023-05-17T12:36:14.856Z,160.48
2023-05-17T12:37:14.852Z,159.67
2023-05-17T12:38:14.850Z,162.28
2023-05-17T12:39:14.816Z,163.44
2023-05-17T12:40:14.900Z,163.18
2023-05-17T12:41:14.844Z,164.11
2023-05-17T12:42:14.792Z,162.56
2023-05-17T12:43:14.793Z,159.91
2023-05-17T12:44:16.170Z,161.47
2023-05-17T12:45:14.804Z,164.36